Time;durP1;ratioP1;P1;durP2;ratioP2;P2;SDS_P1;SDS_P2;PMS_P1;PMS_P2;Temp;Humidity;BMP_temperature;BMP_pressure;BME280_temperature;BME280_humidity;BME280_pressure;Samples;Min_cycle;Max_cycle;Signal;HPM_P1;HPM_P2
2021/10/26 00:01:19;;;;;;;11.40;6.15;;;;;;;5.11;100.00;99221.16;5028671;28;20533;-69
2021/10/26 00:03:44;;;;;;;10.77;6.10;;;;;;;4.86;100.00;99186.16;5031602;28;20077;-68
2021/10/26 00:06:10;;;;;;;11.30;5.97;;;;;;;5.07;100.00;99230.53;5017548;28;20054;-68
2021/10/26 00:08:35;;;;;;;10.77;5.60;;;;;;;5.03;100.00;99233.53;5014443;28;20033;-68
2021/10/26 00:11:01;;;;;;;12.68;5.90;;;;;;;4.99;100.00;99234.84;5014168;28;20034;-69
2021/10/26 00:13:26;;;;;;;12.20;6.15;;;;;;;4.94;100.00;99228.28;5029989;28;20127;-68
2021/10/26 00:15:52;;;;;;;11.55;6.30;;;;;;;4.88;100.00;99210.97;5031735;28;20032;-69
2021/10/26 00:18:18;;;;;;;8.80;5.15;;;;;;;5.04;100.00;99235.22;5108224;23;20037;-71
2021/10/26 00:20:43;;;;;;;9.55;5.93;;;;;;;5.13;100.00;99237.94;5036968;28;20113;-71
2021/10/26 00:23:09;;;;;;;10.40;6.25;;;;;;;5.24;100.00;99243.06;5031556;28;20663;-71
2021/10/26 00:25:34;;;;;;;11.43;5.88;;;;;;;5.35;100.00;99236.59;5032181;28;20025;-71
2021/10/26 00:27:59;;;;;;;7.75;5.28;;;;;;;5.51;100.00;99243.88;5016704;28;20484;-71
2021/10/26 00:30:25;;;;;;;7.82;5.20;;;;;;;5.61;100.00;99242.75;5023276;28;20033;-72
2021/10/26 00:32:51;;;;;;;8.43;5.53;;;;;;;5.64;100.00;99220.13;5032444;28;20041;-71
2021/10/26 00:35:17;;;;;;;8.88;5.88;;;;;;;5.81;100.00;99246.00;5031431;28;20033;-72
2021/10/26 00:37:44;;;;;;;10.75;5.40;;;;;;;5.86;98.82;99245.53;5031607;28;20037;-71
2021/10/26 00:40:11;;;;;;;11.50;5.82;;;;;;;5.77;99.70;99230.41;5031338;28;20044;-71
2021/10/26 00:42:36;;;;;;;10.30;6.78;;;;;;;5.87;99.75;99240.00;5023886;28;20479;-72
2021/10/26 00:45:03;;;;;;;8.43;5.65;;;;;;;6.09;99.51;99248.50;5029643;28;20031;-71
2021/10/26 00:47:28;;;;;;;10.77;6.35;;;;;;;6.02;99.47;99242.91;5030417;28;20068;-71
2021/10/26 00:49:53;;;;;;;9.40;5.60;;;;;;;6.42;98.24;99249.41;5028924;28;20133;-72
2021/10/26 00:52:19;;;;;;;9.63;5.85;;;;;;;6.34;98.57;99252.94;5032262;28;20025;-71
2021/10/26 00:54:44;;;;;;;8.52;5.47;;;;;;;6.31;98.83;99245.19;5032197;28;20068;-71
2021/10/26 00:57:10;;;;;;;12.10;6.60;;;;;;;6.53;98.53;99246.41;5030616;28;20029;-71
2021/10/26 00:59:35;;;;;;;12.68;5.80;;;;;;;6.48;98.03;99253.28;5029361;28;20056;-71
2021/10/26 01:02:01;;;;;;;9.98;5.60;;;;;;;6.47;97.20;99240.81;5028354;28;20120;-71
2021/10/26 01:04:26;;;;;;;8.48;5.53;;;;;;;6.37;95.89;99251.75;5030970;28;20032;-72
2021/10/26 01:06:55;;;;;;;9.00;5.72;;;;;;;6.32;96.41;99252.25;5031896;28;20025;-71
2021/10/26 01:09:20;;;;;;;13.23;5.20;;;;;;;6.43;96.04;99255.63;5031554;28;20479;-70
2021/10/26 01:11:46;;;;;;;10.30;5.53;;;;;;;6.51;97.38;99252.94;5030099;28;20037;-70
2021/10/26 01:14:12;;;;;;;7.75;5.05;;;;;;;6.68;96.45;99254.66;5030640;28;20073;-71
2021/10/26 01:16:38;;;;;;;8.82;5.07;;;;;;;6.76;96.61;99260.03;5028135;28;20025;-70
2021/10/26 01:19:03;;;;;;;10.65;5.38;;;;;;;6.68;95.48;99251.09;5025882;28;20036;-70
2021/10/26 01:21:30;;;;;;;10.73;5.20;;;;;;;6.67;95.70;99261.03;5031358;28;20105;-70
2021/10/26 01:23:55;;;;;;;8.70;4.68;;;;;;;6.62;95.55;99263.38;5031650;28;20557;-70
2021/10/26 01:26:20;;;;;;;8.80;5.40;;;;;;;6.55;95.32;99260.53;5031709;28;20025;-70
2021/10/26 01:28:46;;;;;;;7.18;4.35;;;;;;;6.59;95.68;99266.38;5031532;28;20032;-69
2021/10/26 01:31:11;;;;;;;10.20;4.90;;;;;;;6.61;96.05;99258.16;5031374;28;20025;-70
2021/10/26 01:33:37;;;;;;;9.57;5.38;;;;;;;6.54;96.30;99247.22;5031372;28;20099;-70
2021/10/26 01:36:02;;;;;;;8.27;4.80;;;;;;;6.78;95.73;99260.69;5031625;28;20056;-70
2021/10/26 01:38:28;;;;;;;9.13;4.95;;;;;;;6.84;95.58;99264.56;5035166;28;20100;-70
2021/10/26 01:40:53;;;;;;;6.78;4.80;;;;;;;6.86;95.55;99269.75;5034955;28;20475;-70
2021/10/26 01:43:20;;;;;;;9.85;5.15;;;;;;;6.97;94.26;99264.06;5035324;28;20029;-69
2021/10/26 01:45:46;;;;;;;8.80;4.88;;;;;;;6.92;94.91;99266.41;5033670;28;20562;-70
2021/10/26 01:48:11;;;;;;;7.50;4.93;;;;;;;6.91;95.22;99267.41;5034382;28;20108;-70
2021/10/26 01:50:36;;;;;;;8.52;5.20;;;;;;;6.86;94.88;99265.22;5033194;28;20086;-70
2021/10/26 01:53:02;;;;;;;9.27;5.47;;;;;;;6.92;95.62;99267.25;5033899;28;20112;-70
2021/10/26 01:55:28;;;;;;;11.27;5.03;;;;;;;6.96;95.27;99259.69;5034176;28;20533;-70
2021/10/26 01:57:53;;;;;;;9.80;5.30;;;;;;;7.04;95.06;99273.13;5033678;28;20084;-70
2021/10/26 02:00:20;;;;;;;9.27;5.38;;;;;;;7.04;93.92;99275.81;5034764;28;20029;-70
2021/10/26 02:02:47;;;;;;;8.27;5.72;;;;;;;7.16;94.41;99265.56;5034529;28;20036;-70
2021/10/26 02:05:13;;;;;;;8.65;5.93;;;;;;;7.17;94.10;99265.38;5034712;28;20390;-70
2021/10/26 02:07:38;;;;;;;9.07;4.95;;;;;;;7.26;94.66;99266.22;5034737;28;20029;-70
2021/10/26 02:10:05;;;;;;;12.27;5.47;;;;;;;7.38;94.03;99264.81;5023297;28;20029;-70
2021/10/26 02:12:31;;;;;;;9.93;5.60;;;;;;;7.31;94.00;99265.69;5034541;28;20024;-70
2021/10/26 02:14:56;;;;;;;9.55;5.53;;;;;;;7.26;94.25;99263.53;5034980;28;20029;-70
2021/10/26 02:17:22;;;;;;;9.02;5.13;;;;;;;7.09;95.97;99261.84;5034238;28;20025;-70
2021/10/26 02:19:47;;;;;;;12.23;5.72;;;;;;;7.05;95.84;99265.88;5033232;28;20087;-70
2021/10/26 02:22:12;;;;;;;9.48;5.20;;;;;;;6.98;96.43;99273.81;5035391;28;20013;-70
2021/10/26 02:24:38;;;;;;;9.57;5.28;;;;;;;6.96;97.35;99267.75;5028282;28;20729;-70
2021/10/26 02:27:03;;;;;;;8.70;5.30;;;;;;;7.02;97.62;99284.06;5037097;28;20503;-70
2021/10/26 02:29:28;;;;;;;14.45;5.15;;;;;;;7.08;98.13;99277.16;5034668;28;20387;-70
2021/10/26 02:31:54;;;;;;;8.23;5.07;;;;;;;7.06;97.79;99271.09;5036810;28;20441;-70
2021/10/26 02:34:20;;;;;;;9.50;5.68;;;;;;;7.18;98.11;99272.44;5035103;28;20041;-70
2021/10/26 02:36:46;;;;;;;9.70;5.25;;;;;;;7.28;98.20;99290.25;5034248;28;20060;-70
2021/10/26 02:39:12;;;;;;;8.15;5.20;;;;;;;7.14;99.11;99264.88;5036790;28;20041;-70
2021/10/26 02:41:37;;;;;;;11.82;5.57;;;;;;;7.25;99.44;99284.19;5052732;28;20100;-70
2021/10/26 02:44:04;;;;;;;8.80;5.28;;;;;;;7.32;99.35;99280.84;5039554;28;20382;-70
2021/10/26 02:46:29;;;;;;;9.30;5.20;;;;;;;7.27;99.59;99275.13;5035020;28;20505;-70
2021/10/26 02:48:55;;;;;;;8.00;5.40;;;;;;;7.39;99.14;99285.38;5050340;28;20021;-70
2021/10/26 02:51:20;;;;;;;11.80;5.07;;;;;;;7.27;99.54;99278.66;5052728;28;20021;-70
2021/10/26 02:53:45;;;;;;;10.95;5.22;;;;;;;7.24;100.00;99279.00;5045804;28;20037;-70
2021/10/26 02:56:11;;;;;;;7.65;5.22;;;;;;;7.18;100.00;99280.53;5032057;28;20033;-70
2021/10/26 02:58:36;;;;;;;9.45;5.68;;;;;;;7.15;100.00;99280.88;5043697;28;20021;-70
2021/10/26 03:01:02;;;;;;;8.93;5.32;;;;;;;7.25;100.00;99278.81;5051563;28;20036;-71
2021/10/26 03:03:28;;;;;;;8.50;5.57;;;;;;;7.21;100.00;99266.72;5045480;28;20021;-70
2021/10/26 03:05:54;;;;;;;9.07;5.18;;;;;;;7.27;100.00;99280.50;5035162;28;20223;-70
2021/10/26 03:08:19;;;;;;;9.75;5.57;;;;;;;7.18;100.00;99280.53;5033227;28;20041;-70
2021/10/26 03:10:45;;;;;;;10.10;5.78;;;;;;;7.18;100.00;99293.16;5033069;28;20029;-70
2021/10/26 03:13:10;;;;;;;10.43;5.53;;;;;;;7.14;100.00;99294.47;5029338;28;20033;-70
2021/10/26 03:15:36;;;;;;;7.75;5.45;;;;;;;7.19;100.00;99287.56;5033931;28;20033;-70
2021/10/26 03:18:02;;;;;;;10.20;5.30;;;;;;;7.11;100.00;99287.59;5033311;28;20060;-70
2021/10/26 03:20:27;;;;;;;7.20;4.85;;;;;;;6.86;99.54;99275.97;5031563;28;20426;-70
2021/10/26 03:22:53;;;;;;;8.85;5.82;;;;;;;6.85;99.73;99297.69;5018173;28;20460;-70
2021/10/26 03:25:19;;;;;;;7.82;5.32;;;;;;;6.79;100.00;99296.50;5029895;28;20472;-70
2021/10/26 03:27:45;;;;;;;8.45;5.22;;;;;;;6.62;100.00;99275.97;5029623;28;20030;-70
2021/10/26 03:30:11;;;;;;;9.40;5.22;;;;;;;6.64;100.00;99293.63;5033836;28;20032;-70
2021/10/26 03:32:37;;;;;;;14.65;5.82;;;;;;;6.64;100.00;99299.00;5035388;28;20041;-70
2021/10/26 03:35:03;;;;;;;9.57;5.18;;;;;;;6.57;100.00;99300.66;5034740;28;20036;-70
2021/10/26 03:37:29;;;;;;;9.77;5.85;;;;;;;6.56;100.00;99299.81;5034660;28;20568;-73
2021/10/26 03:39:56;;;;;;;9.77;5.90;;;;;;;6.56;100.00;99307.06;5028643;28;20057;-70
2021/10/26 03:42:25;;;;;;;9.75;5.78;;;;;;;6.78;100.00;99306.41;5034105;28;20108;-75
2021/10/26 03:44:51;;;;;;;9.60;5.50;;;;;;;6.70;100.00;99292.94;5033759;28;20105;-75
2021/10/26 03:47:17;;;;;;;10.70;5.63;;;;;;;6.70;100.00;99305.56;5023616;28;20556;-74
2021/10/26 03:49:42;;;;;;;10.20;5.85;;;;;;;6.70;100.00;99295.63;5032873;28;20095;-75
2021/10/26 03:52:08;;;;;;;8.73;5.63;;;;;;;6.79;100.00;99307.25;5033816;28;20494;-74
2021/10/26 03:54:34;;;;;;;10.45;5.85;;;;;;;6.93;100.00;99292.28;5037416;28;20037;-76
2021/10/26 03:56:59;;;;;;;10.07;5.85;;;;;;;6.80;100.00;99306.25;5037541;28;20806;-75
2021/10/26 03:59:30;;;;;;;9.25;5.97;;;;;;;7.00;100.00;99310.28;5030622;28;20488;-77
2021/10/26 04:01:57;;;;;;;9.05;5.90;;;;;;;6.85;100.00;99297.69;5038231;28;20017;-75
2021/10/26 04:04:22;;;;;;;11.77;6.35;;;;;;;6.89;100.00;99315.16;5031545;28;20505;-78
2021/10/26 04:06:48;;;;;;;8.82;5.30;;;;;;;6.61;100.00;99302.03;5032692;28;20100;-78
2021/10/26 04:09:14;;;;;;;10.38;5.60;;;;;;;6.53;100.00;99304.69;5030159;28;20075;-74
2021/10/26 04:11:51;;;;;;;11.02;5.82;;;;;;;6.21;100.00;99271.38;5025346;28;20025;-75
2021/10/26 04:14:16;;;;;;;12.00;6.38;;;;;;;6.55;100.00;99308.06;5021911;28;20399;-75
2021/10/26 04:16:41;;;;;;;11.63;5.72;;;;;;;6.60;100.00;99321.81;5020792;28;20033;-73
2021/10/26 04:19:09;;;;;;;14.63;6.22;;;;;;;6.61;100.00;99311.94;5032094;28;20033;-74
2021/10/26 04:21:35;;;;;;;14.98;5.93;;;;;;;6.54;100.00;99315.28;5032057;28;20033;-76
2021/10/26 04:24:01;;;;;;;10.73;5.97;;;;;;;6.64;100.00;99325.03;5032343;28;20032;-76
2021/10/26 04:26:26;;;;;;;9.55;5.75;;;;;;;6.59;100.00;99315.63;5027818;28;20029;-77
2021/10/26 04:28:51;;;;;;;12.65;6.18;;;;;;;6.61;100.00;99322.69;5031108;28;20036;-78
2021/10/26 04:31:18;;;;;;;10.52;6.15;;;;;;;6.72;100.00;99292.78;5031571;28;20425;-77
2021/10/26 04:33:43;;;;;;;9.88;6.00;;;;;;;6.77;100.00;99317.34;5030867;28;20033;-76
2021/10/26 04:36:08;;;;;;;9.38;5.93;;;;;;;6.78;100.00;99314.47;5030686;28;20402;-75
2021/10/26 04:38:34;;;;;;;9.95;6.20;;;;;;;6.65;100.00;99300.66;5032129;28;20033;-73
2021/10/26 04:41:01;;;;;;;11.00;6.05;;;;;;;6.88;100.00;99335.00;5030526;28;20391;-71
2021/10/26 04:43:27;;;;;;;11.00;6.15;;;;;;;6.90;100.00;99319.53;5033522;28;20028;-71
2021/10/26 04:45:53;;;;;;;10.40;6.30;;;;;;;6.97;100.00;99342.06;5031224;28;20033;-74
2021/10/26 04:48:19;;;;;;;11.60;6.03;;;;;;;6.94;100.00;99337.00;5029194;28;20471;-74
2021/10/26 04:50:45;;;;;;;8.50;5.72;;;;;;;6.90;100.00;99333.81;5032124;28;20025;-73
2021/10/26 04:53:10;;;;;;;10.23;6.25;;;;;;;6.93;100.00;99338.03;5032437;28;20437;-74
2021/10/26 04:55:36;;;;;;;9.95;6.07;;;;;;;6.85;100.00;99329.94;5033303;28;20636;-74
2021/10/26 04:58:01;;;;;;;11.20;6.47;;;;;;;6.87;100.00;99326.09;5033859;28;20025;-73
2021/10/26 05:00:29;;;;;;;14.10;6.80;;;;;;;6.90;100.00;99328.44;5032521;28;20022;-73
2021/10/26 05:02:54;;;;;;;13.60;7.28;;;;;;;7.07;100.00;99344.59;5031852;28;20068;-73
2021/10/26 05:05:19;;;;;;;11.93;7.50;;;;;;;7.06;100.00;99338.38;5033013;28;20022;-74
2021/10/26 05:07:44;;;;;;;12.00;7.25;;;;;;;7.09;100.00;99338.03;5030465;28;20437;-70
2021/10/26 05:10:10;;;;;;;11.50;6.85;;;;;;;7.13;100.00;99335.88;5031030;28;20044;-75
2021/10/26 05:12:35;;;;;;;11.77;6.15;;;;;;;7.17;100.00;99347.94;5034544;28;20434;-73
2021/10/26 05:15:01;;;;;;;13.77;6.63;;;;;;;6.98;100.00;99336.50;5033849;28;20040;-74
2021/10/26 05:17:27;;;;;;;10.93;6.00;;;;;;;7.07;100.00;99329.28;5035218;28;20030;-71
2021/10/26 05:19:54;;;;;;;13.50;6.75;;;;;;;7.12;100.00;99339.53;5031559;28;20080;-69
2021/10/26 05:22:19;;;;;;;11.18;6.95;;;;;;;7.14;100.00;99341.06;5034127;28;20239;-68
2021/10/26 05:24:45;;;;;;;11.30;7.40;;;;;;;7.06;100.00;99329.47;5035904;28;20037;-69
2021/10/26 05:27:11;;;;;;;13.18;7.65;;;;;;;6.91;100.00;99340.03;5034515;28;20032;-69
2021/10/26 05:29:40;;;;;;;12.18;8.25;;;;;;;6.90;100.00;99357.19;5035609;28;20148;-74
2021/10/26 05:32:07;;;;;;;12.80;7.82;;;;;;;6.82;100.00;99349.13;5033671;28;20411;-74
2021/10/26 05:34:36;;;;;;;11.88;7.18;;;;;;;6.86;100.00;99351.28;5035479;28;20041;-74
2021/10/26 05:37:01;;;;;;;11.55;7.70;;;;;;;6.92;100.00;99363.25;5035696;28;20407;-72
2021/10/26 05:39:26;;;;;;;10.88;7.30;;;;;;;6.83;100.00;99353.47;5038635;28;20018;-74
2021/10/26 05:41:51;;;;;;;15.45;7.15;;;;;;;6.83;100.00;99353.47;5037813;28;20022;-76
2021/10/26 05:44:17;;;;;;;10.35;7.22;;;;;;;6.86;100.00;99345.06;5034697;28;20514;-75
2021/10/26 05:46:43;;;;;;;11.65;7.50;;;;;;;7.00;100.00;99352.50;5035214;28;20462;-76
2021/10/26 05:49:08;;;;;;;12.40;7.50;;;;;;;7.17;100.00;99366.78;5033024;28;20036;-68
2021/10/26 05:51:34;;;;;;;11.57;6.28;;;;;;;7.24;100.00;99362.44;5035316;28;20382;-68
2021/10/26 05:53:59;;;;;;;10.05;7.10;;;;;;;7.33;100.00;99361.41;5035117;28;20034;-68
2021/10/26 05:56:24;;;;;;;11.57;7.85;;;;;;;7.23;100.00;99356.22;5035841;28;20025;-68
2021/10/26 05:58:53;;;;;;;11.05;7.13;;;;;;;7.21;100.00;99374.38;5033233;28;20029;-68
2021/10/26 06:01:22;;;;;;;9.45;6.90;;;;;;;7.19;100.00;99375.53;5029722;28;20021;-69
2021/10/26 06:03:49;;;;;;;14.93;7.45;;;;;;;7.16;100.00;99365.13;5030055;28;20029;-73
2021/10/26 06:06:14;;;;;;;13.05;7.55;;;;;;;7.17;100.00;99364.94;5029526;28;20116;-72
2021/10/26 06:08:40;;;;;;;10.65;7.22;;;;;;;7.17;100.00;99369.47;5032868;28;20113;-72
2021/10/26 06:11:09;;;;;;;13.35;6.95;;;;;;;7.27;100.00;99382.78;5029438;28;20406;-72
2021/10/26 06:13:38;;;;;;;10.75;6.47;;;;;;;7.19;100.00;99381.75;5033703;28;20044;-72
2021/10/26 06:16:04;;;;;;;11.82;7.20;;;;;;;7.20;100.00;99382.59;5032741;28;20057;-73
2021/10/26 06:18:29;;;;;;;12.65;7.68;;;;;;;7.15;100.00;99383.13;5074001;23;20136;-71
2021/10/26 06:20:54;;;;;;;11.98;7.35;;;;;;;7.28;100.00;99397.91;5038504;28;20037;-73
2021/10/26 06:23:20;;;;;;;9.95;6.40;;;;;;;7.17;100.00;99381.06;5038006;28;20034;-75
2021/10/26 06:25:45;;;;;;;12.18;6.63;;;;;;;7.24;100.00;99381.25;5036339;28;20068;-72
2021/10/26 06:28:11;;;;;;;11.98;6.68;;;;;;;7.47;100.00;99411.88;5039772;28;20604;-73
2021/10/26 06:30:37;;;;;;;10.02;6.60;;;;;;;7.30;100.00;99387.81;5031484;28;20025;-73
2021/10/26 06:33:02;;;;;;;10.63;6.57;;;;;;;7.53;100.00;99409.53;5034470;28;20169;-72
2021/10/26 06:35:28;;;;;;;11.07;6.28;;;;;;;7.54;100.00;99417.41;5021213;28;20156;-73
2021/10/26 06:37:54;;;;;;;11.07;6.38;;;;;;;7.76;100.00;99415.06;5015977;28;20040;-72
2021/10/26 06:40:20;;;;;;;10.75;6.68;;;;;;;7.82;100.00;99422.47;5003270;28;20026;-75
2021/10/26 06:42:46;;;;;;;14.07;7.38;;;;;;;7.75;100.00;99403.44;5003803;28;20027;-75
2021/10/26 06:45:12;;;;;;;15.55;9.13;;;;;;;8.04;100.00;99426.28;5002756;28;20513;-73
2021/10/26 06:47:38;;;;;;;26.05;11.02;;;;;;;8.14;99.97;99435.03;5017750;28;20045;-66
2021/10/26 06:50:05;;;;;;;18.77;10.50;;;;;;;7.94;100.00;99422.94;5004234;28;20059;-72
2021/10/26 06:52:30;;;;;;;18.70;9.50;;;;;;;8.03;100.00;99422.75;4993201;28;20053;-75
2021/10/26 06:54:56;;;;;;;19.23;10.48;;;;;;;8.02;100.00;99414.88;5022815;28;20049;-73
2021/10/26 06:57:24;;;;;;;18.00;10.23;;;;;;;8.20;100.00;99442.44;5014446;28;20106;-73
2021/10/26 06:59:49;;;;;;;14.07;9.55;;;;;;;8.34;100.00;99441.72;5011609;28;20397;-70
2021/10/26 07:02:14;;;;;;;13.05;7.00;;;;;;;8.38;99.90;99446.75;5016552;28;20024;-75
2021/10/26 07:04:40;;;;;;;11.65;7.13;;;;;;;8.40;99.34;99434.81;5014606;28;20037;-75
2021/10/26 07:07:05;;;;;;;12.02;7.10;;;;;;;8.33;98.90;99431.09;5011114;28;20030;-74
2021/10/26 07:09:30;;;;;;;13.45;7.70;;;;;;;8.44;98.36;99430.78;5008816;28;20236;-71
2021/10/26 07:11:57;;;;;;;15.27;7.60;;;;;;;8.94;96.63;99442.19;5011093;28;20036;-69
2021/10/26 07:14:22;;;;;;;14.75;9.23;;;;;;;9.16;94.07;99451.31;5006260;28;20168;-69
2021/10/26 07:16:47;;;;;;;34.25;18.23;;;;;;;9.32;93.60;99456.59;5000067;28;20120;-70
2021/10/26 07:19:12;;;;;;;28.90;15.18;;;;;;;9.96;92.47;99460.84;5012918;28;20026;-71
2021/10/26 07:21:38;;;;;;;20.15;10.95;;;;;;;11.22;86.89;99456.34;5012972;28;20069;-70
2021/10/26 07:24:04;;;;;;;13.02;8.25;;;;;;;12.78;75.55;99457.19;5006579;28;20041;-71
2021/10/26 07:26:30;;;;;;;12.50;6.50;;;;;;;13.51;71.68;99461.00;5008225;28;20510;-71
2021/10/26 07:28:56;;;;;;;9.95;6.45;;;;;;;15.01;66.56;99439.50;5003767;28;20031;-71
2021/10/26 07:31:24;;;;;;;9.45;5.60;;;;;;;15.22;62.62;99430.19;5007329;28;20467;-72
2021/10/26 07:33:50;;;;;;;10.90;5.78;;;;;;;15.11;63.48;99439.84;5025144;28;20029;-72
2021/10/26 07:36:16;;;;;;;10.38;6.30;;;;;;;14.36;65.42;99447.63;5007554;28;20030;-71
2021/10/26 07:38:41;;;;;;;10.85;6.57;;;;;;;13.27;70.22;99465.13;5005520;28;20037;-71
2021/10/26 07:41:10;;;;;;;10.80;6.80;;;;;;;12.18;74.86;99465.81;5011009;28;20017;-71
2021/10/26 07:43:37;;;;;;;13.18;6.68;;;;;;;11.44;78.47;99470.72;5010319;28;20087;-71
2021/10/26 07:46:06;;;;;;;12.20;6.72;;;;;;;10.67;82.83;99454.00;5005279;28;20029;-70
2021/10/26 07:48:32;;;;;;;12.10;7.30;;;;;;;10.13;86.91;99464.22;5005151;28;20502;-71
2021/10/26 07:50:59;;;;;;;9.55;6.85;;;;;;;10.00;88.34;99457.56;4997448;28;20046;-71
2021/10/26 07:53:26;;;;;;;12.77;7.63;;;;;;;10.15;88.58;99473.00;5004029;28;20105;-72
2021/10/26 07:55:52;;;;;;;9.32;6.80;;;;;;;10.23;88.37;99473.75;5004859;28;20026;-72
2021/10/26 07:58:18;;;;;;;9.38;6.85;;;;;;;10.25;88.57;99460.88;5010432;28;20085;-72
2021/10/26 08:00:44;;;;;;;16.30;7.18;;;;;;;12.20;80.68;99469.16;5011445;28;20109;-73
2021/10/26 08:03:09;;;;;;;12.40;6.55;;;;;;;15.73;65.64;99434.69;5022392;28;20045;-72
2021/10/26 08:05:35;;;;;;;10.88;6.13;;;;;;;19.24;53.24;99445.47;5008880;28;20526;-72
2021/10/26 08:08:00;;;;;;;11.80;5.72;;;;;;;20.47;48.12;99437.44;4993102;28;20034;-73
2021/10/26 08:10:27;;;;;;;8.82;5.72;;;;;;;20.75;48.15;99447.50;5002248;28;20036;-72
2021/10/26 08:12:52;;;;;;;10.50;5.43;;;;;;;21.64;45.12;99462.88;5010942;28;20084;-73
2021/10/26 08:15:18;;;;;;;9.00;5.75;;;;;;;22.89;42.25;99466.31;5003265;28;20034;-72
2021/10/26 08:17:43;;;;;;;9.05;5.40;;;;;;;22.59;42.49;99475.28;5005557;28;20061;-72
2021/10/26 08:20:09;;;;;;;7.90;5.40;;;;;;;21.83;43.33;99465.25;5007157;28;20113;-72
2021/10/26 08:22:38;;;;;;;8.32;5.55;;;;;;;20.86;46.15;99464.13;5021576;28;20028;-77
2021/10/26 08:25:10;;;;;;;7.97;5.18;;;;;;;19.49;48.83;99478.88;4999278;28;20026;-73
2021/10/26 08:27:36;;;;;;;12.75;5.25;;;;;;;19.07;50.80;99463.75;5008794;28;20417;-73
2021/10/26 08:30:11;;;;;;;7.85;5.45;;;;;;;20.48;47.86;99465.75;5023350;28;20034;-72
2021/10/26 08:35:18;;;;;;;9.45;5.07;;;;;;;24.30;39.09;99468.09;5013861;28;20527;-73
2021/10/26 08:37:53;;;;;;;10.32;5.20;;;;;;;21.73;44.60;99471.50;5011817;28;20021;-73
2021/10/26 08:40:20;;;;;;;10.43;5.80;;;;;;;21.46;45.12;99460.50;5004522;28;20026;-72
2021/10/26 08:42:47;;;;;;;9.55;5.65;;;;;;;20.87;46.58;99474.03;5002576;28;20152;-74
2021/10/26 08:45:13;;;;;;;9.23;5.50;;;;;;;20.32;47.11;99473.75;4995439;28;20033;-74
2021/10/26 08:47:41;;;;;;;8.93;5.45;;;;;;;19.69;49.98;99480.38;5004172;28;20026;-78
2021/10/26 08:50:07;;;;;;;8.30;5.35;;;;;;;18.82;50.65;99467.63;5017936;28;20026;-79
2021/10/26 08:52:32;;;;;;;11.82;5.82;;;;;;;17.34;54.97;99466.66;5033901;28;20026;-78
2021/10/26 08:54:58;;;;;;;9.20;5.75;;;;;;;17.18;55.68;99466.22;5030072;28;20029;-76
2021/10/26 08:57:24;;;;;;;12.27;6.20;;;;;;;16.47;59.12;99466.81;5010191;28;20527;-77
2021/10/26 08:59:52;;;;;;;13.30;6.32;;;;;;;16.46;59.22;99435.09;5014486;28;20018;-77
2021/10/26 09:02:17;;;;;;;10.70;6.25;;;;;;;17.12;57.60;99456.22;5000930;28;20015;-70
2021/10/26 09:04:44;;;;;;;9.40;5.15;;;;;;;18.60;53.81;99468.22;4991485;28;20022;-70
2021/10/26 09:07:21;;;;;;;7.22;5.30;;;;;;;19.86;50.02;99441.97;5012702;28;20072;-70
2021/10/26 09:09:46;;;;;;;8.55;5.28;;;;;;;19.81;49.87;99444.63;5008649;28;20030;-70
2021/10/26 09:18:05;;;;;;;6.63;4.55;;;;;;;20.60;46.95;99455.53;4982061;28;20073;-70
2021/10/26 09:20:31;;;;;;;6.63;4.30;;;;;;;20.14;49.34;99465.75;5002616;28;20076;-70
2021/10/26 09:22:59;;;;;;;8.80;4.47;;;;;;;19.80;48.94;99459.41;4998149;28;20019;-70
2021/10/26 09:25:34;;;;;;;11.38;4.70;;;;;;;19.72;49.48;99460.66;5004159;28;20483;-70
2021/10/26 09:28:18;;;;;;;6.82;4.20;;;;;;;19.51;48.80;99453.09;5000117;28;20029;-70
2021/10/26 09:31:08;;;;;;;7.88;4.20;;;;;;;18.30;52.60;99462.03;5000906;28;20023;-70
2021/10/26 09:33:41;;;;;;;10.60;4.43;;;;;;;18.18;53.99;99459.28;5004718;28;20026;-72
2021/10/26 09:36:21;;;;;;;5.90;3.63;;;;;;;18.66;52.56;99462.88;5000586;28;20026;-70
2021/10/26 09:38:54;;;;;;;6.97;3.88;;;;;;;18.88;52.54;99446.63;4999784;28;20037;-70
2021/10/26 09:41:19;;;;;;;7.03;4.63;;;;;;;20.93;48.04;99446.34;5001052;28;20077;-72
2021/10/26 09:43:45;;;;;;;5.10;3.63;;;;;;;23.80;41.36;99437.41;5002205;28;20120;-77
2021/10/26 09:46:10;;;;;;;6.60;3.80;;;;;;;25.14;38.10;99453.50;5008824;28;20028;-76
2021/10/26 09:48:35;;;;;;;6.15;3.50;;;;;;;25.88;37.91;99447.31;5007613;28;20025;-69
2021/10/26 09:51:08;;;;;;;9.38;3.67;;;;;;;26.49;36.24;99454.28;5018913;28;20057;-66
2021/10/26 09:53:35;;;;;;;7.65;3.85;;;;;;;28.36;33.06;99437.34;5015106;28;20077;-66
2021/10/26 09:56:02;;;;;;;8.25;3.47;;;;;;;28.19;32.82;99449.88;5009983;28;20032;-67
2021/10/26 09:58:29;;;;;;;6.07;3.80;;;;;;;25.43;37.54;99452.84;5014923;28;20097;-66
2021/10/26 10:01:05;;;;;;;6.65;3.45;;;;;;;22.66;41.95;99456.53;5014294;28;20052;-69
2021/10/26 10:03:31;;;;;;;7.13;4.10;;;;;;;22.39;43.34;99476.78;5006569;28;20033;-65
2021/10/26 10:05:59;;;;;;;6.05;3.88;;;;;;;20.89;46.38;99471.88;5004030;28;20070;-68
2021/10/26 10:08:28;;;;;;;5.80;3.93;;;;;;;19.56;50.79;99475.16;5005263;28;20041;-68
2021/10/26 10:11:13;;;;;;;5.40;3.28;;;;;;;19.23;51.22;99476.69;4998901;28;20094;-73
2021/10/26 10:13:58;;;;;;;5.78;2.97;;;;;;;18.79;51.79;99474.44;5000214;28;20037;-72
2021/10/26 10:16:25;;;;;;;7.05;2.95;;;;;;;18.84;52.23;99476.47;5010340;28;20510;-73
2021/10/26 10:18:52;;;;;;;5.70;3.50;;;;;;;18.58;53.15;99477.75;5007540;28;20116;-71
2021/10/26 10:21:29;;;;;;;10.57;3.65;;;;;;;18.11;54.42;99481.31;5014463;28;20037;-70
2021/10/26 10:23:58;;;;;;;7.07;3.42;;;;;;;18.98;52.09;99477.84;4995186;28;20036;-73
2021/10/26 10:26:26;;;;;;;5.82;2.88;;;;;;;19.90;49.63;99476.06;4992969;28;20027;-72
2021/10/26 10:28:52;;;;;;;7.40;3.80;;;;;;;19.62;50.14;99455.81;5028057;28;20040;-72
2021/10/26 10:31:20;;;;;;;8.27;3.90;;;;;;;18.92;51.75;99454.16;5013525;28;20030;-72
2021/10/26 10:33:46;;;;;;;9.80;4.53;;;;;;;17.46;56.94;99465.63;4999473;28;20599;-72
2021/10/26 10:36:13;;;;;;;9.45;4.13;;;;;;;17.53;56.14;99469.13;5011653;28;20411;-72
2021/10/26 10:38:39;;;;;;;5.60;3.17;;;;;;;17.66;55.63;99465.34;5007368;28;20487;-71
2021/10/26 10:41:26;;;;;;;9.45;3.13;;;;;;;17.32;56.71;99469.63;4996724;28;20105;-70
2021/10/26 10:43:53;;;;;;;8.50;3.58;;;;;;;16.88;58.87;99470.81;4996677;28;20036;-72
2021/10/26 10:46:37;;;;;;;9.88;3.88;;;;;;;16.75;60.00;99466.31;5012675;28;20057;-72
2021/10/26 10:49:35;;;;;;;5.95;3.22;;;;;;;15.71;63.74;99477.72;5010296;28;20129;-71
2021/10/26 10:52:18;;;;;;;5.75;3.22;;;;;;;16.56;61.31;99449.06;4985940;28;20031;-69
2021/10/26 10:54:54;;;;;;;9.32;3.08;;;;;;;17.34;58.93;99464.75;4992836;28;20030;-71
2021/10/26 10:57:26;;;;;;;6.82;3.72;;;;;;;18.88;54.05;99450.22;4999259;28;20057;-72
2021/10/26 10:59:57;;;;;;;6.10;3.13;;;;;;;19.96;51.27;99449.53;5013112;28;20057;-72
2021/10/26 11:02:23;;;;;;;6.30;2.90;;;;;;;19.57;51.63;99427.41;5013233;28;20674;-73
2021/10/26 11:04:50;;;;;;;11.05;3.20;;;;;;;19.70;51.40;99438.09;5003228;28;20141;-71
2021/10/26 11:07:15;;;;;;;5.30;2.65;;;;;;;19.26;51.67;99443.31;5001516;28;20026;-71
2021/10/26 11:09:44;;;;;;;5.65;2.50;;;;;;;18.76;53.82;99455.72;5006773;28;20092;-72
2021/10/26 11:12:20;;;;;;;5.50;2.50;;;;;;;18.12;55.68;99452.84;5011114;28;20041;-71
2021/10/26 11:14:55;;;;;;;7.07;2.55;;;;;;;17.28;57.60;99463.78;5011177;28;20128;-72
2021/10/26 11:17:32;;;;;;;8.80;2.60;;;;;;;17.80;56.72;99454.22;5008897;28;20040;-71
2021/10/26 11:20:10;;;;;;;4.90;2.35;;;;;;;17.92;56.88;99455.06;5008151;28;20041;-72
2021/10/26 11:22:44;;;;;;;5.72;2.45;;;;;;;18.60;54.28;99449.03;5002499;28;20087;-71
2021/10/26 11:25:28;;;;;;;3.95;1.88;;;;;;;22.15;47.62;99442.38;5012023;28;20030;-71
2021/10/26 11:27:55;;;;;;;5.57;2.67;;;;;;;22.19;45.49;99427.00;5010150;28;20048;-70
2021/10/26 11:30:36;;;;;;;4.00;1.95;;;;;;;22.14;45.40;99443.47;5012146;28;20034;-73
2021/10/26 11:33:13;;;;;;;4.55;2.17;;;;;;;21.12;46.86;99440.53;4996395;28;20104;-72
2021/10/26 11:35:55;;;;;;;7.97;2.15;;;;;;;21.44;46.70;99421.38;5001183;28;20049;-72
2021/10/26 11:38:29;;;;;;;3.08;1.80;;;;;;;21.92;45.19;99441.63;5001918;28;20033;-73
2021/10/26 11:41:01;;;;;;;4.85;2.10;;;;;;;21.79;45.60;99440.16;5006863;28;20038;-72